Aérodrome :
LOGIN :

S'inscrire | Disclaimer

   EN    FR    IT 

 










Légende :    VFR   VFR Marginal   IFR   IFR Intensif   IFR Très Intensif
Visi : 
Plafond : 
>= 8 km
>= 3000ft
5 à 8 km
1000 à 3000 ft
1500m à 5 km
500 à 1000 ft
800 à 1500m
200 à 500 ft
< 800m
< 200 ft
Symboles :   Orages  Brouillard  Fortes neiges  Fortes précipitations  Vent > 20 kt
SIGMETs :   Divers  Orages  Givrage  Turbulence  Onde Orograph.  Cendres Volcan.







- Altitude de l'aérodrome : 138 ft
- Code IATA : BIO


LEBB - Bilbao

DERNIER METAR :
  • 132054Z 30016KT 270V330 8000 -RA SCT025 BKN035 BKN045 11/09 Q1014 RESHRA TEMPO RA

METARs EXPIRÉS :
  • 132041Z 31015KT 7000 3000 SHRA SCT025 FEW030TCU BKN035 BKN045 11/09 Q1014 TEMPO RA
  • 132030Z 30014KT 9999 SCT025 BKN035 BKN045 12/08 Q1013 TEMPO RA
  • 132000Z 30017G27KT 260V340 9999 SCT030 BKN045 BKN055 12/09 Q1013 TEMPO RA
  • 131930Z 31020G31KT 290V350 9999 SCT030 BKN045 BKN055 12/09 Q1013 TEMPO RA
  • 131900Z 32017G28KT 9999 SCT030 BKN045 BKN065 12/08 Q1012 TEMPO RA
  • 131830Z 31022G33KT 9999 SCT028 BKN035 BKN045 12/08 Q1012 TEMPO RA
  • 131800Z 32016G26KT 9000 SCT025 BKN050 BKN065 12/09 Q1012 TEMPO RA

TAF TAF LEBB
Valide du 13 à 18h jusqu'au 14 à 18h UTC


131700Z 1318/1418 29009KT 9999 SCT025 BKN050 TX13/1414Z TN08/1408Z
TEMPO 1318/1412 RA
PROB40
TEMPO 1318/1321 3000 SHRA SCT030TCU
TEMPO 1318/1409 30015G30KT
PROB30
TEMPO 1318/1322 32020G40KT
TEMPO 1322/1408 BKN010
Pas de NOTAMs connus pour ce terrain.
1 SIGMET publié pour la FIR Madrid (LECM) :
 
Turbulence forte
LECM SIGMET 9 VALID 132000/132400 LEVA
LECM MADRID FIR/UIR SEV TURB FCST E OF LINE N4437 W00619 - N3554 W00254 SFC/FL400 MOV E NC=



MET'MAP, la Météo Aéronautique d'un coup d'oeil ! - Copyright ORBIFLY Décembre 2007 - Disclaimer

ORBIFLY MET'MAP TEAM :

Programmation & Développement : Alexandra Zaïnal
Conception & Développement : Baudouin d'Aumeries
Co-Programmation & Développement : Marc-Olivier Méhu
Soutien technique & logistique : Manuel Goepfert

Contact : metmap@orbifly.com




SOURCES & CREDITS :

   NOAA